createdAt,value
2023-10-19T00:02:08.946Z,100057.13
2023-10-19T00:04:37.315Z,100028.03
2023-10-19T00:07:06.958Z,100093.34
2023-10-19T00:09:38.612Z,100004.16
2023-10-19T00:12:11.012Z,99998.13
2023-10-19T00:14:37.782Z,100019.25
2023-10-19T00:17:11.901Z,100090.44
2023-10-19T00:19:58.484Z,99999.38
2023-10-19T00:22:25.593Z,100024.09
2023-10-19T00:24:52.194Z,100100.69
2023-10-19T00:27:20.580Z,99977.63
2023-10-19T00:29:50.712Z,100059.63
2023-10-19T00:32:20.553Z,100005.25
2023-10-19T00:34:53.229Z,99974.72
2023-10-19T00:37:27.358Z,99995.00
2023-10-19T00:39:56.738Z,100065.72
2023-10-19T00:42:32.472Z,100001.50
2023-10-19T00:45:06.996Z,99987.66
2023-10-19T00:47:41.535Z,100070.94
2023-10-19T00:50:23.249Z,99993.75
2023-10-19T00:52:51.378Z,99978.47
2023-10-19T00:55:22.752Z,99977.00
2023-10-19T00:57:51.034Z,100038.50
2023-10-19T01:00:35.573Z,99974.69
2023-10-19T01:03:06.300Z,100045.38
2023-10-19T01:05:37.141Z,99973.88
2023-10-19T01:08:29.126Z,99941.63
2023-10-19T01:10:55.797Z,99977.22
2023-10-19T01:13:28.879Z,99937.44
2023-10-19T01:15:55.738Z,99921.97
2023-10-19T01:18:23.539Z,100041.81
2023-10-19T01:20:54.116Z,99948.97
2023-10-19T01:23:26.573Z,99973.41
2023-10-19T01:26:00.231Z,99994.97
2023-10-19T01:28:51.264Z,99931.72
2023-10-19T01:31:29.523Z,99934.84
2023-10-19T01:33:58.847Z,99876.97
2023-10-19T01:36:26.681Z,99911.44
2023-10-19T01:38:56.533Z,99972.84
2023-10-19T01:41:25.509Z,99914.56
2023-10-19T01:43:54.876Z,99895.91
2023-10-19T01:46:35.075Z,99942.53
2023-10-19T01:49:04.773Z,99937.75
2023-10-19T01:51:34.101Z,99964.06
2023-10-19T01:54:06.274Z,99954.22
2023-10-19T01:56:36.495Z,99935.59
2023-10-19T01:59:06.214Z,99854.28
2023-10-19T02:01:34.216Z,99857.13
2023-10-19T02:04:04.497Z,99863.25
2023-10-19T02:06:38.083Z,99852.09
2023-10-19T02:09:18.074Z,99929.97
2023-10-19T02:11:49.387Z,99935.50
2023-10-19T02:14:20.196Z,99890.97
2023-10-19T02:16:53.204Z,99838.13
2023-10-19T02:19:21.644Z,99849.78
2023-10-19T02:21:59.616Z,99911.16
2023-10-19T02:24:27.309Z,99835.13
2023-10-19T02:26:58.856Z,99834.97
2023-10-19T02:29:27.275Z,99912.06
2023-10-19T02:31:57.440Z,99806.75
2023-10-19T02:34:24.560Z,99809.28
2023-10-19T02:36:51.290Z,99908.59
2023-10-19T02:39:18.893Z,99883.31
2023-10-19T02:41:49.291Z,99899.06
2023-10-19T02:44:23.288Z,99916.25
2023-10-19T02:46:53.223Z,99877.78
2023-10-19T02:49:22.449Z,99877.28
2023-10-19T02:51:50.745Z,99919.31
2023-10-19T02:54:31.215Z,99887.13
2023-10-19T02:56:59.586Z,99919.91
2023-10-19T02:59:33.103Z,99918.84
2023-10-19T03:02:13.333Z,99915.06
2023-10-19T03:04:43.086Z,99889.19
2023-10-19T03:07:13.242Z,99905.88
2023-10-19T03:09:55.230Z,99913.78
2023-10-19T03:12:26.637Z,99902.69
2023-10-19T03:14:53.419Z,99878.41
2023-10-19T03:17:24.277Z,99857.59
2023-10-19T03:19:51.654Z,99894.69
2023-10-19T03:22:18.522Z,99894.09
2023-10-19T03:24:45.323Z,99855.91
2023-10-19T03:27:22.929Z,99845.00
2023-10-19T03:29:55.369Z,99885.50
2023-10-19T03:32:29.783Z,99804.94
2023-10-19T03:34:57.803Z,99773.31
2023-10-19T03:37:31.487Z,99809.50
2023-10-19T03:39:59.841Z,99794.19
2023-10-19T03:42:29.139Z,99769.53
2023-10-19T03:44:56.129Z,99753.03
2023-10-19T03:47:27.628Z,99784.13
2023-10-19T03:49:54.794Z,99800.28
2023-10-19T03:52:21.891Z,99869.78
2023-10-19T03:54:50.315Z,99855.22
2023-10-19T03:57:31.081Z,99769.28
2023-10-19T03:59:58.416Z,99788.72
2023-10-19T04:02:26.526Z,99803.16
2023-10-19T04:04:53.731Z,99830.88
2023-10-19T04:07:23.532Z,99778.06
2023-10-19T04:10:09.392Z,99823.22
2023-10-19T04:12:38.900Z,99751.19
2023-10-19T04:15:18.186Z,99697.00
2023-10-19T04:17:49.892Z,99751.00
2023-10-19T04:20:20.172Z,99737.50
2023-10-19T04:22:48.813Z,99828.09
2023-10-19T04:25:30.567Z,99798.31
2023-10-19T04:27:58.550Z,99743.84
2023-10-19T04:30:25.722Z,99836.50
2023-10-19T04:32:52.668Z,99759.31
2023-10-19T04:35:23.052Z,99707.97
2023-10-19T04:37:54.576Z,99730.75
2023-10-19T04:40:22.652Z,99736.53
2023-10-19T04:42:51.367Z,99830.13
2023-10-19T04:45:18.125Z,99827.94
2023-10-19T04:47:44.808Z,99728.44
2023-10-19T04:50:11.962Z,99737.03
2023-10-19T04:52:39.229Z,99824.69
2023-10-19T04:55:06.523Z,99712.41
2023-10-19T04:57:33.456Z,99710.06
2023-10-19T05:00:00.354Z,99733.03
2023-10-19T05:02:27.190Z,99804.22
2023-10-19T05:04:53.844Z,99811.16
2023-10-19T05:07:20.440Z,99804.88
2023-10-19T05:09:48.158Z,99804.88
2023-10-19T05:12:15.692Z,99805.44
2023-10-19T05:14:43.517Z,99776.50
2023-10-19T05:17:13.890Z,99715.38
2023-10-19T05:19:41.215Z,99785.84
2023-10-19T05:22:09.612Z,99726.84
2023-10-19T05:24:37.120Z,99713.22
2023-10-19T05:27:04.637Z,99693.22
2023-10-19T05:29:34.576Z,99687.31
2023-10-19T05:32:01.986Z,99669.03
2023-10-19T05:34:30.644Z,99718.09
2023-10-19T05:37:00.186Z,99786.53
2023-10-19T05:39:30.071Z,99786.25
2023-10-19T05:41:56.920Z,99794.59
2023-10-19T05:44:26.081Z,99780.81
2023-10-19T05:46:53.183Z,99790.25
2023-10-19T05:49:19.800Z,99769.34
2023-10-19T05:51:46.440Z,99767.22
2023-10-19T05:54:13.675Z,99773.25
2023-10-19T05:56:40.466Z,99775.53
2023-10-19T05:59:07.928Z,99772.81
2023-10-19T06:01:34.937Z,99762.63
2023-10-19T06:04:01.915Z,99759.03
2023-10-19T06:06:28.631Z,99745.72
2023-10-19T06:08:55.321Z,99752.34
2023-10-19T06:11:22.981Z,99732.63
2023-10-19T06:13:49.772Z,99741.97
2023-10-19T06:16:19.355Z,99758.47
2023-10-19T06:18:46.257Z,99751.72
2023-10-19T06:21:13.625Z,99747.31
2023-10-19T06:23:40.340Z,99720.00
2023-10-19T06:26:14.442Z,99738.34
2023-10-19T06:28:42.230Z,99729.97
2023-10-19T06:31:09.939Z,99698.94
2023-10-19T06:33:37.234Z,99740.00
2023-10-19T06:36:04.817Z,99750.03
2023-10-19T06:38:32.798Z,99754.88
2023-10-19T06:41:00.917Z,99736.28
2023-10-19T06:43:31.099Z,99752.31
2023-10-19T06:46:01.568Z,99756.31
2023-10-19T06:48:28.414Z,99749.59
2023-10-19T06:50:55.020Z,99753.06
2023-10-19T06:53:22.859Z,99763.75
2023-10-19T06:55:49.585Z,99731.75
2023-10-19T06:58:16.344Z,99770.25
2023-10-19T07:00:48.331Z,99758.50
2023-10-19T07:03:15.229Z,99763.53
2023-10-19T07:05:41.917Z,99760.50
2023-10-19T07:08:08.468Z,99771.41
2023-10-19T07:10:36.210Z,99749.47
2023-10-19T07:13:03.313Z,99764.09
2023-10-19T07:15:31.400Z,99762.56
2023-10-19T07:17:59.519Z,99741.31
2023-10-19T07:20:26.944Z,99737.78
2023-10-19T07:22:55.576Z,99735.03
2023-10-19T07:25:23.017Z,99769.09
2023-10-19T07:27:51.079Z,99738.44
2023-10-19T07:30:23.389Z,99783.94
2023-10-19T07:32:55.671Z,99784.38
2023-10-19T07:35:23.774Z,99786.06
2023-10-19T07:37:51.584Z,99758.03
2023-10-19T07:40:19.509Z,99772.47
2023-10-19T07:42:47.700Z,99762.47
2023-10-19T07:45:14.397Z,99761.50
2023-10-19T07:47:42.062Z,99770.94
2023-10-19T07:50:18.750Z,99774.91
2023-10-19T07:52:50.809Z,99746.03
2023-10-19T07:55:18.821Z,99754.94
2023-10-19T07:57:45.992Z,99729.78
2023-10-19T08:00:16.414Z,99741.53
2023-10-19T08:02:43.500Z,99749.78
2023-10-19T08:05:12.729Z,99749.13
2023-10-19T08:07:47.925Z,99752.94
2023-10-19T08:10:16.512Z,99754.16
2023-10-19T08:12:44.289Z,99729.22
2023-10-19T08:15:12.375Z,99746.16
2023-10-19T08:17:40.697Z,99744.88
2023-10-19T08:20:24.148Z,99755.00
2023-10-19T08:22:53.251Z,99714.72
2023-10-19T08:25:20.000Z,99752.50
2023-10-19T08:27:49.643Z,99712.47
2023-10-19T08:30:21.275Z,99701.78
2023-10-19T08:32:49.356Z,99703.81
2023-10-19T08:35:19.625Z,99679.28
2023-10-19T08:37:47.340Z,99705.56
2023-10-19T08:40:18.630Z,99683.38
2023-10-19T08:42:46.742Z,99724.63
2023-10-19T08:45:14.350Z,99737.19
2023-10-19T08:47:57.834Z,99742.66
2023-10-19T08:50:30.280Z,99726.31
2023-10-19T08:53:04.764Z,99721.69
2023-10-19T08:55:48.516Z,99750.13
2023-10-19T08:58:17.937Z,99734.91
2023-10-19T09:00:50.737Z,99741.31
2023-10-19T09:03:25.663Z,99736.25
2023-10-19T09:05:52.871Z,99732.16
2023-10-19T09:08:21.085Z,99719.41
2023-10-19T09:10:49.968Z,99724.81
2023-10-19T09:13:19.869Z,99693.91
2023-10-19T09:15:50.544Z,99746.69
2023-10-19T09:18:22.140Z,99754.81
2023-10-19T09:21:10.810Z,99737.72
2023-10-19T09:23:38.078Z,99760.28
2023-10-19T09:26:08.861Z,99745.31
2023-10-19T09:28:37.437Z,99755.16
2023-10-19T09:31:05.016Z,99754.44
2023-10-19T09:33:35.667Z,99760.44
2023-10-19T09:36:05.888Z,99753.09
2023-10-19T09:38:34.190Z,99749.09
2023-10-19T09:41:01.867Z,99734.25
2023-10-19T09:43:36.005Z,99748.69
2023-10-19T09:46:07.802Z,99737.47
2023-10-19T09:48:42.772Z,99742.97
2023-10-19T09:51:16.467Z,99740.47
2023-10-19T09:53:48.588Z,99737.59
2023-10-19T09:56:25.006Z,99735.75
2023-10-19T09:59:00.917Z,99754.22
2023-10-19T10:01:28.408Z,99766.28
2023-10-19T10:03:55.375Z,99777.78
2023-10-19T10:06:51.739Z,99772.56
2023-10-19T10:09:25.227Z,99778.69
2023-10-19T10:11:54.886Z,99772.94
2023-10-19T10:14:27.173Z,99775.03
2023-10-19T10:17:04.838Z,99774.19
2023-10-19T10:19:31.978Z,99758.63
2023-10-19T10:22:06.228Z,99765.03
2023-10-19T10:24:33.067Z,99726.06
2023-10-19T10:27:04.363Z,99728.78
2023-10-19T10:29:32.721Z,99730.69
2023-10-19T10:32:00.776Z,99718.44
2023-10-19T10:34:43.778Z,99723.44
2023-10-19T10:37:15.338Z,99732.69
2023-10-19T10:39:42.049Z,99713.59
2023-10-19T10:42:10.942Z,99745.56
2023-10-19T10:44:41.617Z,99737.13
2023-10-19T10:47:10.855Z,99723.59
2023-10-19T10:49:57.233Z,99737.06
2023-10-19T10:52:35.342Z,99722.16
2023-10-19T10:55:13.896Z,99733.66
2023-10-19T10:57:42.306Z,99736.63
2023-10-19T11:00:11.136Z,99739.13
2023-10-19T11:02:43.906Z,99729.13
2023-10-19T11:05:15.107Z,99733.16
2023-10-19T11:07:43.357Z,99735.03
2023-10-19T11:10:11.225Z,99730.03
2023-10-19T11:12:38.746Z,99740.56
2023-10-19T11:15:10.855Z,99723.63
2023-10-19T11:17:44.715Z,99748.47
2023-10-19T11:20:22.324Z,99719.13
2023-10-19T11:22:51.135Z,99745.59
2023-10-19T11:25:25.444Z,99747.59
2023-10-19T11:27:52.237Z,99746.16
2023-10-19T11:30:30.459Z,99738.88
2023-10-19T11:33:03.299Z,99725.41
2023-10-19T11:35:32.593Z,99739.31
2023-10-19T11:38:00.997Z,99744.31
2023-10-19T11:40:28.358Z,99739.56
2023-10-19T11:42:59.879Z,99732.38
2023-10-19T11:45:26.737Z,99724.25
2023-10-19T11:47:54.660Z,99723.59
2023-10-19T11:50:21.415Z,99709.50
2023-10-19T11:52:48.158Z,99703.75
2023-10-19T11:55:16.095Z,99695.34
2023-10-19T11:57:45.492Z,99693.38
2023-10-19T12:00:26.169Z,99679.56
2023-10-19T12:02:53.317Z,99663.28
2023-10-19T12:05:20.130Z,99677.38
2023-10-19T12:07:46.787Z,99671.09
2023-10-19T12:10:13.828Z,99668.00
2023-10-19T12:15:13.423Z,99661.78
2023-10-19T12:17:40.343Z,99641.19
2023-10-19T12:20:07.833Z,99662.59
2023-10-19T12:22:40.435Z,99657.94
2023-10-19T12:25:07.593Z,99639.91
2023-10-19T12:27:34.324Z,99643.44
2023-10-19T12:30:02.872Z,99625.88
2023-10-19T12:32:29.622Z,99630.19
2023-10-19T12:34:58.848Z,99641.47
2023-10-19T12:37:25.965Z,99617.47
2023-10-19T12:39:53.284Z,99641.81
2023-10-19T12:42:19.868Z,99617.09
2023-10-19T12:44:48.322Z,99617.97
2023-10-19T12:47:15.432Z,99622.66
2023-10-19T12:49:42.195Z,99617.44
2023-10-19T12:52:11.821Z,99632.06
2023-10-19T12:54:39.079Z,99626.69
2023-10-19T12:57:08.647Z,99640.91
2023-10-19T12:59:38.767Z,99646.84
2023-10-19T13:02:09.736Z,99636.38
2023-10-19T13:04:37.815Z,99630.78
2023-10-19T13:07:06.565Z,99617.56
2023-10-19T13:09:34.016Z,99601.75
2023-10-19T13:12:01.359Z,99619.56
2023-10-19T13:14:28.651Z,99622.59
2023-10-19T13:16:55.966Z,99618.06
2023-10-19T13:19:27.160Z,99589.22
2023-10-19T13:21:55.533Z,99608.97
2023-10-19T13:24:22.080Z,99608.69
2023-10-19T13:26:49.687Z,99622.31
2023-10-19T13:29:21.838Z,99617.47
2023-10-19T13:31:51.676Z,99601.63
2023-10-19T13:34:18.395Z,99600.28
2023-10-19T13:36:47.744Z,99603.13
2023-10-19T13:39:17.769Z,99618.13
2023-10-19T13:41:45.301Z,99615.34
2023-10-19T13:44:13.096Z,99610.19
2023-10-19T13:46:40.018Z,99618.91
2023-10-19T13:49:07.060Z,99613.38
2023-10-19T13:51:34.429Z,99630.19
2023-10-19T13:54:01.198Z,99627.94
2023-10-19T13:56:28.251Z,99612.47
2023-10-19T13:58:55.772Z,99611.09
2023-10-19T14:01:25.616Z,99590.19
2023-10-19T14:03:56.130Z,99584.09
2023-10-19T14:06:24.958Z,99565.34
2023-10-19T14:08:52.603Z,99596.34
2023-10-19T14:11:47.989Z,99539.06
2023-10-19T14:21:54.475Z,99576.00
2023-10-19T14:24:21.271Z,99512.00
2023-10-19T14:26:48.076Z,99548.03
2023-10-19T14:29:14.992Z,99500.25
2023-10-19T14:31:42.048Z,99537.53
2023-10-19T14:34:11.567Z,99619.81
2023-10-19T14:36:38.353Z,99515.75
2023-10-19T14:39:06.403Z,99519.38
2023-10-19T14:41:33.844Z,99545.53
2023-10-19T14:44:02.288Z,99539.22
2023-10-19T14:46:30.563Z,99533.16
2023-10-19T14:48:57.207Z,99530.22
2023-10-19T14:51:24.091Z,99478.31
2023-10-19T14:53:50.860Z,99521.97
2023-10-19T14:56:17.634Z,99526.69
2023-10-19T14:58:44.360Z,99599.88
2023-10-19T15:01:17.577Z,99599.28
2023-10-19T15:03:44.369Z,99517.75
2023-10-19T15:06:11.757Z,99497.38
2023-10-19T15:08:38.886Z,99605.66
2023-10-19T15:11:05.648Z,99497.47
2023-10-19T15:13:32.424Z,99524.47
2023-10-19T15:16:08.529Z,99509.13
2023-10-19T15:18:37.367Z,99512.22
2023-10-19T15:21:09.610Z,99588.41
2023-10-19T15:23:37.489Z,99514.28
2023-10-19T15:26:04.196Z,99449.19
2023-10-19T15:28:34.338Z,99559.06
2023-10-19T15:31:01.072Z,99480.34
2023-10-19T15:33:28.379Z,99581.69
2023-10-19T15:35:58.700Z,99559.97
2023-10-19T15:38:25.396Z,99598.28
2023-10-19T15:40:52.094Z,99570.88
2023-10-19T15:43:18.672Z,99606.28
2023-10-19T15:45:46.519Z,99602.81
2023-10-19T15:48:13.555Z,99603.78
2023-10-19T15:50:44.501Z,99591.97
2023-10-19T15:53:11.577Z,99559.03
2023-10-19T15:55:38.693Z,99600.97
2023-10-19T15:58:06.562Z,99601.44
2023-10-19T16:00:34.175Z,99585.84
2023-10-19T16:03:01.305Z,99595.91
2023-10-19T16:05:27.890Z,99596.44
2023-10-19T16:07:54.458Z,99577.81
2023-10-19T16:10:21.605Z,99567.53
2023-10-19T16:12:48.557Z,99588.66
2023-10-19T16:15:15.303Z,99589.84
2023-10-19T16:17:44.365Z,99590.97
2023-10-19T16:20:14.096Z,99596.28
2023-10-19T16:22:41.112Z,99580.91
2023-10-19T16:25:08.794Z,99564.38
2023-10-19T16:27:35.493Z,99585.16
2023-10-19T16:30:02.446Z,99586.38
2023-10-19T16:32:31.535Z,99586.22
2023-10-19T16:34:58.894Z,99557.66
2023-10-19T16:37:25.869Z,99590.41
2023-10-19T16:39:53.949Z,99590.59
2023-10-19T16:42:21.947Z,99580.41
2023-10-19T16:44:48.923Z,99541.09
2023-10-19T16:47:15.527Z,99561.47
2023-10-19T16:49:42.153Z,99574.78
2023-10-19T16:52:08.878Z,99564.03
2023-10-19T16:54:38.501Z,99580.44
2023-10-19T16:57:05.298Z,99580.13
2023-10-19T16:59:32.177Z,99589.25
2023-10-19T17:01:59.150Z,99577.97
2023-10-19T17:04:26.955Z,99576.06
2023-10-19T17:06:53.844Z,99580.28
2023-10-19T17:09:22.125Z,99592.78
2023-10-19T17:11:50.913Z,99580.53
2023-10-19T17:14:17.637Z,99562.50
2023-10-19T17:16:45.564Z,99582.63
2023-10-19T17:19:12.676Z,99572.66
2023-10-19T17:21:42.067Z,99594.59
2023-10-19T17:24:10.108Z,99588.25
2023-10-19T17:26:36.753Z,99596.72
2023-10-19T17:29:03.626Z,99603.75
2023-10-19T17:31:30.795Z,99579.53
2023-10-19T17:33:58.045Z,99604.94
2023-10-19T17:36:25.441Z,99597.41
2023-10-19T17:38:52.348Z,99603.91
2023-10-19T17:41:19.576Z,99589.75
2023-10-19T17:43:46.365Z,99601.91
2023-10-19T17:46:15.231Z,99588.00
2023-10-19T17:48:45.149Z,99582.38
2023-10-19T17:51:14.569Z,99564.53
2023-10-19T17:53:41.551Z,99589.69
2023-10-19T17:56:09.005Z,99581.19
2023-10-19T17:58:36.426Z,99575.28
2023-10-19T18:01:10.816Z,99586.34
2023-10-19T18:03:42.354Z,99572.22
2023-10-19T18:06:10.575Z,99560.59
2023-10-19T18:08:37.875Z,99581.44
2023-10-19T18:11:04.938Z,99577.63
2023-10-19T18:13:34.577Z,99567.03
2023-10-19T18:16:04.063Z,99554.06
2023-10-19T18:18:31.185Z,99583.63
2023-10-19T18:20:58.756Z,99587.84
2023-10-19T18:23:28.803Z,99578.66
2023-10-19T18:25:57.137Z,99556.97
2023-10-19T18:28:24.290Z,99572.41
2023-10-19T18:31:00.257Z,99585.00
2023-10-19T18:33:30.288Z,99580.53
2023-10-19T18:36:01.470Z,99581.88
2023-10-19T18:38:29.142Z,99586.28
2023-10-19T18:41:00.319Z,99569.19
2023-10-19T18:43:30.809Z,99566.75
2023-10-19T18:45:57.862Z,99581.63
2023-10-19T18:48:26.175Z,99586.47
2023-10-19T18:51:06.114Z,99575.00
2023-10-19T18:53:37.124Z,99559.03
2023-10-19T18:56:07.495Z,99558.84
2023-10-19T18:58:35.107Z,99565.69
2023-10-19T19:01:03.434Z,99563.69
2023-10-19T19:03:33.095Z,99572.66
2023-10-19T19:06:01.842Z,99561.84
2023-10-19T19:08:30.100Z,99582.28
2023-10-19T19:10:58.620Z,99584.09
2023-10-19T19:13:26.370Z,99578.91
2023-10-19T19:15:54.345Z,99565.22
2023-10-19T19:18:21.128Z,99585.25
2023-10-19T19:20:47.813Z,99583.53
2023-10-19T19:23:14.444Z,99554.81
2023-10-19T19:25:44.353Z,99577.91
2023-10-19T19:28:10.938Z,99574.28
2023-10-19T19:30:38.603Z,99575.44
2023-10-19T19:33:06.852Z,99528.88
2023-10-19T19:35:33.504Z,99586.50
2023-10-19T19:38:00.644Z,99566.00
2023-10-19T19:40:27.311Z,99555.03
2023-10-19T19:42:54.227Z,99577.13
2023-10-19T19:45:23.797Z,99563.97
2023-10-19T19:47:53.920Z,99573.53
2023-10-19T19:50:21.816Z,99578.19
2023-10-19T19:52:48.862Z,99579.53
2023-10-19T19:55:15.806Z,99575.69
2023-10-19T19:57:42.978Z,99565.53
2023-10-19T20:00:16.918Z,99572.22
2023-10-19T20:02:45.978Z,99568.72
2023-10-19T20:05:13.489Z,99574.97
2023-10-19T20:07:40.721Z,99578.91
2023-10-19T20:10:11.026Z,99577.28
2023-10-19T20:12:42.292Z,99577.53
2023-10-19T20:15:09.490Z,99572.13
2023-10-19T20:17:36.400Z,99586.41
2023-10-19T20:20:12.637Z,99566.00
2023-10-19T20:22:41.738Z,99557.81
2023-10-19T20:25:12.697Z,99575.91
2023-10-19T20:27:41.117Z,99574.25
2023-10-19T20:30:08.629Z,99588.47
2023-10-19T20:32:35.782Z,99581.13
2023-10-19T20:35:02.327Z,99581.78
2023-10-19T20:37:28.937Z,99582.47
2023-10-19T20:39:59.001Z,99577.00
2023-10-19T20:42:25.623Z,99569.84
2023-10-19T20:44:53.426Z,99543.22
2023-10-19T20:47:20.119Z,99569.69
2023-10-19T20:49:46.878Z,99581.34
2023-10-19T20:52:13.451Z,99580.75
2023-10-19T20:54:40.745Z,99572.47
2023-10-19T20:57:07.873Z,99532.50
2023-10-19T20:59:34.434Z,99561.84
2023-10-19T21:02:03.942Z,99557.38
2023-10-19T21:04:31.933Z,99535.00
2023-10-19T21:06:58.834Z,99529.44
2023-10-19T21:09:25.479Z,99539.00
2023-10-19T21:11:52.004Z,99535.72
2023-10-19T21:14:18.700Z,99529.56
2023-10-19T21:16:45.312Z,99534.03
2023-10-19T21:19:22.381Z,99509.03
2023-10-19T21:21:58.814Z,99527.72
2023-10-19T21:24:25.441Z,99545.66
2023-10-19T21:26:52.379Z,99554.75
2023-10-19T21:29:19.132Z,99546.09
2023-10-19T21:31:45.765Z,99550.81
2023-10-19T21:34:12.508Z,99539.59
2023-10-19T21:36:39.084Z,99556.94
2023-10-19T21:39:05.854Z,99520.13
2023-10-19T21:41:32.492Z,99531.16
2023-10-19T21:43:59.794Z,99509.13
2023-10-19T21:46:26.933Z,99490.81
2023-10-19T21:48:53.571Z,99518.47
2023-10-19T21:51:20.304Z,99510.88
2023-10-19T21:53:51.138Z,99520.00
2023-10-19T21:56:18.762Z,99495.91
2023-10-19T21:58:45.471Z,99514.16
2023-10-19T22:01:14.653Z,99479.41
2023-10-19T22:03:42.563Z,99504.88
2023-10-19T22:06:09.395Z,99493.81
2023-10-19T22:08:36.525Z,99491.88
2023-10-19T22:11:03.387Z,99493.78
2023-10-19T22:13:31.884Z,99500.88
2023-10-19T22:15:58.507Z,99491.09
2023-10-19T22:18:25.300Z,99473.25
2023-10-19T22:20:56.062Z,99469.63
2023-10-19T22:23:23.566Z,99478.34
2023-10-19T22:25:50.160Z,99458.09
2023-10-19T22:28:17.404Z,99468.28
2023-10-19T22:30:44.136Z,99453.31
2023-10-19T22:33:10.811Z,99425.81
2023-10-19T22:35:38.471Z,99469.28
2023-10-19T22:38:06.027Z,99468.88
2023-10-19T22:40:32.653Z,99461.16
2023-10-19T22:42:59.298Z,99462.47
2023-10-19T22:45:25.939Z,99462.25
2023-10-19T22:47:53.247Z,99462.31
2023-10-19T22:50:20.099Z,99460.81
2023-10-19T22:52:47.058Z,99441.47
2023-10-19T22:55:14.040Z,99448.00
2023-10-19T22:57:41.996Z,99455.28
2023-10-19T23:00:15.904Z,99453.56
2023-10-19T23:02:46.421Z,99438.75
2023-10-19T23:05:14.524Z,99444.63
2023-10-19T23:07:42.622Z,99438.56
2023-10-19T23:10:13.668Z,99450.28
2023-10-19T23:12:42.228Z,99438.97
2023-10-19T23:15:20.397Z,99428.16
2023-10-19T23:17:50.875Z,99403.44
2023-10-19T23:20:29.290Z,99426.03
2023-10-19T23:22:58.107Z,99425.59
2023-10-19T23:25:24.966Z,99386.44
2023-10-19T23:27:51.576Z,99411.44
2023-10-19T23:30:18.293Z,99426.44
2023-10-19T23:32:44.993Z,99429.41
2023-10-19T23:35:11.723Z,99447.13
2023-10-19T23:37:38.413Z,99446.72
2023-10-19T23:40:08.559Z,99444.84
2023-10-19T23:42:35.727Z,99426.63
2023-10-19T23:45:02.194Z,99447.13
2023-10-19T23:47:28.904Z,99435.53
2023-10-19T23:49:55.661Z,99454.59
2023-10-19T23:52:22.262Z,99462.06
2023-10-19T23:54:48.983Z,99429.72
2023-10-19T23:57:18.333Z,99453.84
2023-10-19T23:59:48.381Z,99426.59
